LFBL/LIG METAR and TAF weather

Enter ICAO airport designator
Station Type Date Time Source
LFBL METAR 2022/11/30 18:00 UTC NOAA

LFBL 301800Z AUTO 05011KT 9999 OVC024 06/03 Q1019 BECMG BKN012


Station Type Date Time Source
LFBL Decoded METAR 2022/11/30 18:00 UTC NOAA

Limoges, France (LFBL) 45-52N 001-11E 402M
Nov 30, 2022 - 01:00 PM EST / 2022.11.30 1800 UTC
Wind: from the NE (050 degrees) at 13 MPH (11 KT):0
Visibility: greater than 7 mile(s):0
Sky conditions: overcast
Temperature: 42 F (6 C)
Dew Point: 37 F (3 C)
Relative Humidity: 81%
Pressure (altimeter): 30.09 in. Hg (1019 hPa)
ob: LFBL 301800Z AUTO 05011KT 9999 OVC024 06/03 Q1019 BECMG BKN012
cycle: 18

Station Type Date Time Source
LFBL TAF 2022/11/30 18:42 UTC NOAA

TAF TAF LFBL 301700Z 3018/0118 05010KT 9999 BKN012
TEMPO 0102/0107 BKN008

Example: see airport list